createdAt,value
2023-02-22T00:00:20.510Z,0.00
2023-02-22T00:01:20.478Z,0.00
2023-02-22T00:02:20.505Z,0.00
2023-02-22T00:03:20.485Z,0.00
2023-02-22T00:04:20.459Z,0.00
2023-02-22T00:05:20.445Z,0.00
2023-02-22T00:06:20.432Z,0.00
2023-02-22T00:07:20.412Z,0.00
2023-02-22T00:08:20.410Z,0.00
2023-02-22T00:09:20.428Z,0.00
2023-02-22T00:10:20.422Z,0.00
2023-02-22T00:11:20.384Z,0.00
2023-02-22T00:12:20.375Z,0.00
2023-02-22T00:13:20.366Z,0.00
2023-02-22T00:14:20.584Z,0.00
2023-02-22T00:15:20.338Z,0.00
2023-02-22T00:16:20.394Z,0.00
2023-02-22T00:17:20.343Z,0.00
2023-02-22T00:18:20.328Z,0.00
2023-02-22T00:19:20.348Z,0.00
2023-02-22T00:20:20.328Z,0.00
2023-02-22T00:21:20.323Z,0.00
2023-02-22T00:22:20.314Z,0.00
2023-02-22T00:23:20.241Z,0.00
2023-02-22T00:24:20.278Z,0.00
2023-02-22T00:25:20.257Z,0.00
2023-02-22T00:26:20.243Z,0.00
2023-02-22T00:27:20.217Z,0.00
2023-02-22T00:28:20.195Z,0.00
2023-02-22T00:29:20.205Z,0.00
2023-02-22T00:30:20.189Z,0.00
2023-02-22T00:31:20.596Z,0.00
2023-02-22T00:32:20.300Z,0.00
2023-02-22T00:33:20.136Z,0.00
2023-02-22T00:34:20.124Z,0.00
2023-02-22T00:35:20.136Z,0.00
2023-02-22T00:36:20.113Z,0.00
2023-02-22T00:37:20.121Z,0.00
2023-02-22T00:38:20.095Z,0.00
2023-02-22T00:39:20.082Z,0.00
2023-02-22T00:40:20.064Z,0.00
2023-02-22T00:41:20.119Z,0.00
2023-02-22T00:42:20.056Z,0.00
2023-02-22T00:43:20.044Z,0.00
2023-02-22T00:44:20.025Z,0.00
2023-02-22T00:45:20.046Z,0.00
2023-02-22T00:46:20.077Z,0.00
2023-02-22T00:47:19.994Z,0.00
2023-02-22T00:48:19.982Z,0.00
2023-02-22T00:49:19.993Z,0.00
2023-02-22T00:50:19.965Z,0.00
2023-02-22T00:51:19.950Z,0.00
2023-02-22T00:52:19.936Z,0.00
2023-02-22T00:53:19.935Z,0.00
2023-02-22T00:54:19.937Z,0.00
2023-02-22T00:55:19.912Z,0.00
2023-02-22T00:56:19.925Z,0.00
2023-02-22T00:57:19.878Z,0.00
2023-02-22T00:58:19.880Z,0.00
2023-02-22T00:59:19.866Z,0.00
2023-02-22T01:00:19.861Z,0.00
2023-02-22T01:01:19.949Z,0.00
2023-02-22T01:02:19.979Z,0.00
2023-02-22T01:03:19.828Z,0.00
2023-02-22T01:04:19.811Z,0.00
2023-02-22T01:05:19.793Z,0.00
2023-02-22T01:06:19.785Z,0.00
2023-02-22T01:07:19.791Z,0.00
2023-02-22T01:08:19.774Z,0.00
2023-02-22T01:09:19.758Z,0.00
2023-02-22T01:10:19.746Z,0.00
2023-02-22T01:11:19.731Z,0.00
2023-02-22T01:12:19.738Z,0.00
2023-02-22T01:13:19.705Z,0.00
2023-02-22T01:14:19.708Z,0.00
2023-02-22T01:15:19.690Z,0.00
2023-02-22T01:16:19.717Z,0.00
2023-02-22T01:17:19.717Z,0.00
2023-02-22T01:18:19.652Z,0.00
2023-02-22T01:19:19.652Z,0.00
2023-02-22T01:20:19.627Z,0.00
2023-02-22T01:21:19.639Z,0.00
2023-02-22T01:22:19.611Z,0.00
2023-02-22T01:23:19.611Z,0.00
2023-02-22T01:24:19.588Z,0.00
2023-02-22T01:25:19.584Z,0.00
2023-02-22T01:26:19.579Z,0.00
2023-02-22T01:27:19.586Z,0.00
2023-02-22T01:28:19.554Z,0.00
2023-02-22T01:29:19.537Z,0.00
2023-02-22T01:30:19.540Z,0.00
2023-02-22T01:31:20.068Z,0.00
2023-02-22T01:32:19.567Z,0.00
2023-02-22T01:33:19.544Z,0.00
2023-02-22T01:34:19.491Z,0.00
2023-02-22T01:35:19.478Z,0.00
2023-02-22T01:36:19.461Z,0.00
2023-02-22T01:37:19.466Z,0.00
2023-02-22T01:38:19.452Z,0.00
2023-02-22T01:39:19.454Z,0.00
2023-02-22T01:40:19.423Z,0.00
2023-02-22T01:41:19.403Z,0.00
2023-02-22T01:42:19.401Z,0.00
2023-02-22T01:43:19.404Z,0.00
2023-02-22T01:44:19.382Z,0.00
2023-02-22T01:45:19.368Z,0.00
2023-02-22T01:46:19.415Z,0.00
2023-02-22T01:47:19.343Z,0.00
2023-02-22T01:48:19.330Z,0.00
2023-02-22T01:49:19.362Z,0.00
2023-02-22T01:50:19.327Z,0.00
2023-02-22T01:51:19.517Z,0.00
2023-02-22T01:52:19.295Z,0.00
2023-02-22T01:53:19.285Z,0.00
2023-02-22T01:54:19.277Z,0.00
2023-02-22T01:55:19.269Z,0.00
2023-02-22T01:56:19.259Z,0.00
2023-02-22T01:57:19.234Z,0.00
2023-02-22T01:58:19.241Z,0.00
2023-02-22T01:59:19.237Z,0.00
2023-02-22T02:00:19.209Z,0.00
2023-02-22T02:01:19.487Z,0.00
2023-02-22T02:02:19.181Z,0.00
2023-02-22T02:03:19.194Z,0.00
2023-02-22T02:04:19.185Z,0.00
2023-02-22T02:05:19.298Z,0.00
2023-02-22T02:06:19.140Z,0.00
2023-02-22T02:07:19.132Z,0.00
2023-02-22T02:08:19.116Z,0.00
2023-02-22T02:09:19.121Z,0.00
2023-02-22T02:10:19.112Z,0.00
2023-02-22T02:11:19.197Z,0.00
2023-02-22T02:12:19.085Z,0.00
2023-02-22T02:13:19.063Z,0.00
2023-02-22T02:14:19.055Z,0.00
2023-02-22T02:15:19.056Z,0.00
2023-02-22T02:16:24.521Z,0.00
2023-02-22T02:17:19.030Z,0.00
2023-02-22T02:18:19.027Z,0.00
2023-02-22T02:19:19.007Z,0.00
2023-02-22T02:20:19.014Z,0.00
2023-02-22T02:21:19.028Z,0.00
2023-02-22T02:22:19.006Z,0.00
2023-02-22T02:23:18.963Z,0.00
2023-02-22T02:24:18.957Z,0.00
2023-02-22T02:25:18.965Z,0.00
2023-02-22T02:26:18.940Z,0.00
2023-02-22T02:27:18.927Z,0.00
2023-02-22T02:28:18.910Z,0.00
2023-02-22T02:29:18.926Z,0.00
2023-02-22T02:30:18.907Z,0.00
2023-02-22T02:31:19.227Z,0.00
2023-02-22T02:32:18.961Z,0.00
2023-02-22T02:33:18.874Z,0.00
2023-02-22T02:34:18.850Z,0.00
2023-02-22T02:35:18.845Z,0.00
2023-02-22T02:36:18.849Z,0.00
2023-02-22T02:37:18.849Z,0.00
2023-02-22T02:38:18.815Z,0.00
2023-02-22T02:39:18.795Z,0.00
2023-02-22T02:40:18.820Z,0.00
2023-02-22T02:41:19.064Z,0.00
2023-02-22T02:42:18.780Z,0.00
2023-02-22T02:43:18.759Z,0.00
2023-02-22T02:44:18.746Z,0.00
2023-02-22T02:45:18.734Z,0.00
2023-02-22T02:46:18.717Z,0.00
2023-02-22T02:47:18.774Z,0.00
2023-02-22T02:48:18.714Z,0.00
2023-02-22T02:49:18.716Z,0.00
2023-02-22T02:50:18.699Z,0.00
2023-02-22T02:51:18.901Z,0.00
2023-02-22T02:52:18.656Z,0.00
2023-02-22T02:53:18.664Z,0.00
2023-02-22T02:54:18.652Z,0.00
2023-02-22T02:55:18.637Z,0.00
2023-02-22T02:56:18.611Z,0.00
2023-02-22T02:57:18.608Z,0.00
2023-02-22T02:58:18.602Z,0.00
2023-02-22T02:59:18.575Z,0.00
2023-02-22T03:00:18.599Z,0.00
2023-02-22T03:01:18.951Z,0.00
2023-02-22T03:02:18.545Z,0.00
2023-02-22T03:03:18.541Z,0.00
2023-02-22T03:04:18.556Z,0.00
2023-02-22T03:05:18.528Z,0.00
2023-02-22T03:06:18.527Z,0.00
2023-02-22T03:07:18.628Z,0.00
2023-02-22T03:08:18.487Z,0.00
2023-02-22T03:09:18.497Z,0.00
2023-02-22T03:10:18.479Z,0.00
2023-02-22T03:11:18.923Z,0.00
2023-02-22T03:12:18.452Z,0.00
2023-02-22T03:13:18.435Z,0.00
2023-02-22T03:14:18.426Z,0.00
2023-02-22T03:15:18.419Z,0.00
2023-02-22T03:16:18.433Z,0.00
2023-02-22T03:17:18.406Z,0.00
2023-02-22T03:18:18.384Z,0.00
2023-02-22T03:19:18.365Z,0.00
2023-02-22T03:20:18.371Z,0.00
2023-02-22T03:21:18.640Z,0.00
2023-02-22T03:22:18.349Z,0.00
2023-02-22T03:23:18.330Z,0.00
2023-02-22T03:24:18.330Z,0.00
2023-02-22T03:25:18.353Z,0.00
2023-02-22T03:26:18.296Z,0.00
2023-02-22T03:27:18.284Z,0.00
2023-02-22T03:28:18.278Z,0.00
2023-02-22T03:29:18.275Z,0.00
2023-02-22T03:30:18.292Z,0.00
2023-02-22T03:31:18.656Z,0.00
2023-02-22T03:32:18.284Z,0.00
2023-02-22T03:33:18.232Z,0.00
2023-02-22T03:34:18.209Z,0.00
2023-02-22T03:35:18.201Z,0.00
2023-02-22T03:36:18.195Z,0.00
2023-02-22T03:37:18.182Z,0.00
2023-02-22T03:38:18.174Z,0.00
2023-02-22T03:39:18.166Z,0.00
2023-02-22T03:40:18.143Z,0.00
2023-02-22T03:41:18.442Z,0.00
2023-02-22T03:42:18.130Z,0.00
2023-02-22T03:43:18.127Z,0.00
2023-02-22T03:44:18.132Z,0.00
2023-02-22T03:45:18.095Z,0.00
2023-02-22T03:46:18.117Z,0.00
2023-02-22T03:47:18.087Z,0.00
2023-02-22T03:48:18.073Z,0.00
2023-02-22T03:49:18.070Z,0.00
2023-02-22T03:50:18.055Z,0.00
2023-02-22T03:51:18.595Z,0.00
2023-02-22T03:52:18.032Z,0.00
2023-02-22T03:53:18.013Z,0.00
2023-02-22T03:54:18.009Z,0.00
2023-02-22T03:55:18.001Z,0.00
2023-02-22T03:56:17.989Z,0.00
2023-02-22T03:57:17.981Z,0.00
2023-02-22T03:58:17.956Z,0.00
2023-02-22T03:59:17.956Z,0.00
2023-02-22T04:00:17.946Z,0.00
2023-02-22T04:01:18.214Z,0.00
2023-02-22T04:02:17.937Z,0.00
2023-02-22T04:03:18.003Z,0.00
2023-02-22T04:04:17.917Z,0.00
2023-02-22T04:05:17.884Z,0.00
2023-02-22T04:06:17.881Z,0.00
2023-02-22T04:07:17.859Z,0.00
2023-02-22T04:08:17.880Z,0.00
2023-02-22T04:09:17.857Z,0.00
2023-02-22T04:10:17.828Z,0.00
2023-02-22T04:11:18.166Z,0.00
2023-02-22T04:12:17.841Z,0.00
2023-02-22T04:13:17.814Z,0.00
2023-02-22T04:14:17.799Z,0.00
2023-02-22T04:15:17.779Z,0.00
2023-02-22T04:16:17.809Z,0.00
2023-02-22T04:17:17.757Z,0.00
2023-02-22T04:18:17.755Z,0.00
2023-02-22T04:19:17.732Z,0.00
2023-02-22T04:20:17.742Z,0.00
2023-02-22T04:21:18.030Z,0.00
2023-02-22T04:22:17.704Z,0.00
2023-02-22T04:23:17.699Z,0.00
2023-02-22T04:24:17.675Z,0.00
2023-02-22T04:25:17.664Z,0.00
2023-02-22T04:26:17.666Z,0.00
2023-02-22T04:27:17.657Z,0.00
2023-02-22T04:28:17.656Z,0.00
2023-02-22T04:29:17.643Z,0.00
2023-02-22T04:30:17.644Z,0.00
2023-02-22T04:31:18.036Z,0.00
2023-02-22T04:32:17.649Z,0.00
2023-02-22T04:33:17.594Z,0.00
2023-02-22T04:34:17.574Z,0.00
2023-02-22T04:35:17.558Z,0.00
2023-02-22T04:36:17.556Z,0.00
2023-02-22T04:37:17.554Z,0.00
2023-02-22T04:38:17.540Z,0.00
2023-02-22T04:39:17.578Z,0.00
2023-02-22T04:40:17.511Z,0.00
2023-02-22T04:41:17.797Z,0.00
2023-02-22T04:42:17.486Z,0.00
2023-02-22T04:43:17.477Z,0.00
2023-02-22T04:44:17.468Z,0.00
2023-02-22T04:45:17.481Z,0.00
2023-02-22T04:46:17.474Z,0.00
2023-02-22T04:47:17.447Z,0.00
2023-02-22T04:48:17.428Z,0.00
2023-02-22T04:49:17.406Z,0.00
2023-02-22T04:50:17.412Z,0.00
2023-02-22T04:51:17.743Z,0.00
2023-02-22T04:52:17.382Z,0.00
2023-02-22T04:53:17.372Z,0.00
2023-02-22T04:54:17.361Z,0.00
2023-02-22T04:55:17.346Z,0.00
2023-02-22T04:56:17.362Z,0.00
2023-02-22T04:57:17.349Z,0.00
2023-02-22T04:58:17.307Z,0.00
2023-02-22T04:59:17.307Z,0.00
2023-02-22T05:00:17.303Z,0.00
2023-02-22T05:01:17.602Z,0.00
2023-02-22T05:02:17.310Z,0.00
2023-02-22T05:03:17.274Z,0.00
2023-02-22T05:04:17.246Z,0.00
2023-02-22T05:05:24.792Z,0.00
2023-02-22T05:06:25.989Z,0.00
2023-02-22T05:07:24.801Z,0.00
2023-02-22T05:08:24.792Z,0.00
2023-02-22T05:09:17.197Z,0.00
2023-02-22T05:10:17.196Z,0.00
2023-02-22T05:11:17.494Z,0.00
2023-02-22T05:12:17.179Z,0.00
2023-02-22T05:13:17.159Z,0.00
2023-02-22T05:14:17.137Z,0.00
2023-02-22T05:15:17.138Z,0.00
2023-02-22T05:16:17.144Z,0.00
2023-02-22T05:17:17.169Z,0.00
2023-02-22T05:18:17.104Z,0.00
2023-02-22T05:19:17.107Z,0.00
2023-02-22T05:20:19.671Z,0.00
2023-02-22T05:21:17.429Z,0.00
2023-02-22T05:22:17.068Z,0.00
2023-02-22T05:23:17.050Z,0.00
2023-02-22T05:24:17.042Z,0.00
2023-02-22T05:25:17.053Z,0.00
2023-02-22T05:26:17.010Z,0.00
2023-02-22T05:27:17.088Z,0.00
2023-02-22T05:28:17.015Z,0.00
2023-02-22T05:29:16.981Z,0.00
2023-02-22T05:30:17.027Z,0.00
2023-02-22T05:31:17.370Z,0.00
2023-02-22T05:32:17.002Z,0.00
2023-02-22T05:33:16.969Z,0.00
2023-02-22T05:34:16.929Z,0.00
2023-02-22T05:35:16.921Z,0.00
2023-02-22T05:36:16.926Z,0.00
2023-02-22T05:37:16.893Z,0.00
2023-02-22T05:38:16.892Z,0.00
2023-02-22T05:39:16.896Z,0.00
2023-02-22T05:40:16.866Z,0.00
2023-02-22T05:41:17.141Z,0.00
2023-02-22T05:42:16.851Z,0.00
2023-02-22T05:43:16.844Z,0.00
2023-02-22T05:44:16.850Z,0.00
2023-02-22T05:45:16.831Z,0.00
2023-02-22T05:46:16.831Z,0.00
2023-02-22T05:47:16.799Z,0.00
2023-02-22T05:48:16.786Z,0.00
2023-02-22T05:49:16.790Z,0.00
2023-02-22T05:50:16.765Z,0.00
2023-02-22T05:51:17.084Z,0.00
2023-02-22T05:52:16.755Z,0.00
2023-02-22T05:53:16.731Z,0.00
2023-02-22T05:54:16.712Z,0.00
2023-02-22T05:55:16.725Z,0.00
2023-02-22T05:56:16.701Z,0.00
2023-02-22T05:57:16.695Z,0.00
2023-02-22T05:58:16.670Z,0.00
2023-02-22T05:59:16.660Z,0.00
2023-02-22T06:00:16.656Z,0.00
2023-02-22T06:01:17.007Z,0.00
2023-02-22T06:02:16.691Z,0.00
2023-02-22T06:03:16.620Z,0.00
2023-02-22T06:04:16.626Z,0.00
2023-02-22T06:05:16.725Z,0.00
2023-02-22T06:06:16.590Z,0.00
2023-02-22T06:07:16.573Z,0.00
2023-02-22T06:08:16.567Z,5.62
2023-02-22T06:09:16.566Z,5.62
2023-02-22T06:10:16.554Z,5.62
2023-02-22T06:11:16.971Z,5.62
2023-02-22T06:12:16.524Z,5.62
2023-02-22T06:13:16.511Z,5.62
2023-02-22T06:14:16.502Z,5.62
2023-02-22T06:15:16.497Z,5.62
2023-02-22T06:16:16.563Z,5.62
2023-02-22T06:17:16.469Z,11.25
2023-02-22T06:18:16.463Z,11.25
2023-02-22T06:19:16.445Z,11.25
2023-02-22T06:20:16.443Z,11.25
2023-02-22T06:21:16.751Z,11.25
2023-02-22T06:22:16.413Z,11.25
2023-02-22T06:23:16.409Z,11.25
2023-02-22T06:24:16.386Z,16.88
2023-02-22T06:25:16.402Z,16.88
2023-02-22T06:26:16.401Z,16.88
2023-02-22T06:27:16.373Z,16.88
2023-02-22T06:28:16.342Z,16.88
2023-02-22T06:29:16.336Z,22.50
2023-02-22T06:30:16.390Z,22.50
2023-02-22T06:31:16.738Z,22.50
2023-02-22T06:32:16.375Z,22.50
2023-02-22T06:33:16.297Z,22.50
2023-02-22T06:34:16.283Z,28.12
2023-02-22T06:35:16.288Z,28.12
2023-02-22T06:36:16.259Z,28.12
2023-02-22T06:37:16.291Z,28.12
2023-02-22T06:38:16.259Z,28.12
2023-02-22T06:39:16.240Z,33.75
2023-02-22T06:40:16.223Z,33.75
2023-02-22T06:41:16.596Z,33.75
2023-02-22T06:42:16.232Z,33.75
2023-02-22T06:43:16.183Z,39.38
2023-02-22T06:44:16.195Z,39.38
2023-02-22T06:45:16.163Z,39.38
2023-02-22T06:46:16.163Z,39.38
2023-02-22T06:47:16.150Z,45.00
2023-02-22T06:48:16.133Z,45.00
2023-02-22T06:49:16.126Z,45.00
2023-02-22T06:50:16.132Z,45.00
2023-02-22T06:51:16.475Z,45.00
2023-02-22T06:52:16.088Z,50.62
2023-02-22T06:53:16.122Z,50.62
2023-02-22T06:54:16.079Z,50.62
2023-02-22T06:55:16.063Z,50.62
2023-02-22T06:56:16.070Z,50.62
2023-02-22T06:57:16.040Z,50.62
2023-02-22T06:58:16.059Z,56.25
2023-02-22T06:59:16.020Z,56.25
2023-02-22T07:00:16.031Z,56.25
2023-02-22T07:01:16.708Z,56.25
2023-02-22T07:02:15.997Z,56.25
2023-02-22T07:03:16.022Z,56.25
2023-02-22T07:04:15.965Z,61.88
2023-02-22T07:05:15.955Z,61.88
2023-02-22T07:06:15.955Z,61.88
2023-02-22T07:07:15.931Z,61.88
2023-02-22T07:08:15.946Z,61.88
2023-02-22T07:09:15.946Z,61.88
2023-02-22T07:10:15.904Z,61.88
2023-02-22T07:11:16.187Z,61.88
2023-02-22T07:12:15.889Z,61.88
2023-02-22T07:13:15.877Z,61.88
2023-02-22T07:14:15.902Z,61.88
2023-02-22T07:15:23.390Z,67.50
2023-02-22T07:16:23.488Z,67.50
2023-02-22T07:17:15.827Z,67.50
2023-02-22T07:18:15.815Z,67.50
2023-02-22T07:19:15.816Z,73.12
2023-02-22T07:20:15.794Z,73.12
2023-02-22T07:21:16.071Z,73.12
2023-02-22T07:22:15.786Z,73.12
2023-02-22T07:23:15.767Z,73.12
2023-02-22T07:24:15.762Z,73.12
2023-02-22T07:25:15.769Z,78.75
2023-02-22T07:26:15.743Z,78.75
2023-02-22T07:27:15.731Z,78.75
2023-02-22T07:28:15.713Z,73.12
2023-02-22T07:29:15.717Z,73.12
2023-02-22T07:30:15.720Z,78.75
2023-02-22T07:31:15.956Z,78.75
2023-02-22T07:32:15.726Z,78.75
2023-02-22T07:33:15.716Z,78.75
2023-02-22T07:34:15.653Z,78.75
2023-02-22T07:35:15.642Z,84.38
2023-02-22T07:36:15.651Z,84.38
2023-02-22T07:37:15.628Z,90.00
2023-02-22T07:38:15.618Z,95.62
2023-02-22T07:39:15.627Z,95.62
2023-02-22T07:40:15.585Z,101.25
2023-02-22T07:41:15.870Z,106.88
2023-02-22T07:42:15.580Z,112.50
2023-02-22T07:43:15.549Z,118.12
2023-02-22T07:44:15.550Z,118.12
2023-02-22T07:45:15.536Z,123.75
2023-02-22T07:46:15.557Z,129.38
2023-02-22T07:47:15.521Z,135.00
2023-02-22T07:48:17.403Z,140.62
2023-02-22T07:49:15.493Z,140.62
2023-02-22T07:50:15.472Z,146.25
2023-02-22T07:51:15.736Z,151.88
2023-02-22T07:52:15.475Z,157.50
2023-02-22T07:53:15.445Z,157.50
2023-02-22T07:54:15.432Z,163.12
2023-02-22T07:55:15.430Z,163.12
2023-02-22T07:56:15.418Z,168.75
2023-02-22T07:57:15.430Z,168.75
2023-02-22T07:58:15.418Z,174.38
2023-02-22T07:59:15.402Z,174.38
2023-02-22T08:00:15.385Z,174.38
2023-02-22T08:01:15.640Z,174.38
2023-02-22T08:02:15.418Z,174.38
2023-02-22T08:03:15.359Z,174.38
2023-02-22T08:04:15.340Z,174.38
2023-02-22T08:05:15.337Z,168.75
2023-02-22T08:06:15.308Z,168.75
2023-02-22T08:07:15.305Z,168.75
2023-02-22T08:08:16.666Z,168.75
2023-02-22T08:09:15.293Z,174.38
2023-02-22T08:10:15.265Z,174.38
2023-02-22T08:11:15.477Z,180.00
2023-02-22T08:12:15.258Z,180.00
2023-02-22T08:13:15.258Z,180.00
2023-02-22T08:14:15.238Z,185.62
2023-02-22T08:15:15.217Z,191.25
2023-02-22T08:16:15.204Z,191.25
2023-02-22T08:17:15.213Z,196.88
2023-02-22T08:18:15.186Z,196.88
2023-02-22T08:19:15.178Z,196.88
2023-02-22T08:20:15.163Z,196.88
2023-02-22T08:21:15.599Z,196.88
2023-02-22T08:22:15.130Z,196.88
2023-02-22T08:23:15.143Z,196.88
2023-02-22T08:24:15.131Z,196.88
2023-02-22T08:25:15.121Z,196.88
2023-02-22T08:26:15.104Z,191.25
2023-02-22T08:27:15.087Z,185.62
2023-02-22T08:28:15.110Z,185.62
2023-02-22T08:29:15.087Z,185.62
2023-02-22T08:30:15.097Z,185.62
2023-02-22T08:31:15.261Z,185.62
2023-02-22T08:32:15.225Z,180.00
2023-02-22T08:33:15.140Z,180.00
2023-02-22T08:34:15.015Z,174.38
2023-02-22T08:35:15.000Z,174.38
2023-02-22T08:36:14.984Z,174.38
2023-02-22T08:37:14.981Z,174.38
2023-02-22T08:38:14.964Z,174.38
2023-02-22T08:39:14.966Z,180.00
2023-02-22T08:40:15.140Z,180.00
2023-02-22T08:41:15.214Z,180.00
2023-02-22T08:42:14.943Z,180.00
2023-02-22T08:43:14.916Z,180.00
2023-02-22T08:44:14.914Z,185.62
2023-02-22T08:45:14.924Z,191.25
2023-02-22T08:46:14.941Z,191.25
2023-02-22T08:47:14.864Z,196.88
2023-02-22T08:48:14.852Z,196.88
2023-02-22T08:49:14.848Z,202.50
2023-02-22T08:50:14.846Z,202.50
2023-02-22T08:51:14.993Z,202.50
2023-02-22T08:52:14.813Z,202.50
2023-02-22T08:53:14.804Z,202.50
2023-02-22T08:54:14.791Z,208.12
2023-02-22T08:55:14.792Z,208.12
2023-02-22T08:56:14.777Z,208.12
2023-02-22T08:57:14.766Z,213.75
2023-02-22T08:58:14.764Z,213.75
2023-02-22T08:59:14.735Z,219.38
2023-02-22T09:00:14.719Z,219.38
2023-02-22T09:01:19.269Z,213.75
2023-02-22T09:02:15.711Z,213.75
2023-02-22T09:03:14.738Z,213.75
2023-02-22T09:04:14.677Z,213.75
2023-02-22T09:05:14.678Z,213.75
2023-02-22T09:06:14.706Z,213.75
2023-02-22T09:07:14.649Z,213.75
2023-02-22T09:08:14.634Z,219.38
2023-02-22T09:09:14.649Z,219.38
2023-02-22T09:10:14.610Z,219.38
2023-02-22T09:11:14.967Z,219.38
2023-02-22T09:12:14.591Z,219.38
2023-02-22T09:13:14.590Z,219.38
2023-02-22T09:14:14.563Z,225.00
2023-02-22T09:15:14.581Z,230.62
2023-02-22T09:16:14.592Z,236.25
2023-02-22T09:17:14.575Z,236.25
2023-02-22T09:18:14.691Z,236.25
2023-02-22T09:19:14.528Z,236.25
2023-02-22T09:20:14.509Z,236.25
2023-02-22T09:21:14.819Z,236.25
2023-02-22T09:22:14.488Z,230.62
2023-02-22T09:23:14.562Z,230.62
2023-02-22T09:24:14.463Z,230.62
2023-02-22T09:25:17.089Z,230.62
2023-02-22T09:26:14.441Z,230.62
2023-02-22T09:27:14.438Z,236.25
2023-02-22T09:28:14.425Z,241.88
2023-02-22T09:29:14.428Z,247.50
2023-02-22T09:30:14.407Z,247.50
2023-02-22T09:31:14.475Z,253.12
2023-02-22T09:32:14.584Z,247.50
2023-02-22T09:33:14.549Z,247.50
2023-02-22T09:34:14.363Z,241.88
2023-02-22T09:35:14.348Z,236.25
2023-02-22T09:36:14.680Z,236.25
2023-02-22T09:37:14.333Z,236.25
2023-02-22T09:38:14.326Z,236.25
2023-02-22T09:39:14.303Z,236.25
2023-02-22T09:40:14.296Z,236.25
2023-02-22T09:41:14.489Z,230.62
2023-02-22T09:42:14.270Z,236.25
2023-02-22T09:43:14.324Z,236.25
2023-02-22T09:44:14.268Z,236.25
2023-02-22T09:45:14.248Z,236.25
2023-02-22T09:46:14.333Z,241.88
2023-02-22T09:47:14.324Z,241.88
2023-02-22T09:48:21.727Z,241.88
2023-02-22T09:49:15.226Z,247.50
2023-02-22T09:50:14.216Z,253.12
2023-02-22T09:51:14.175Z,247.50
2023-02-22T09:52:14.173Z,247.50
2023-02-22T09:53:14.171Z,247.50
2023-02-22T09:54:14.155Z,247.50
2023-02-22T09:55:14.153Z,247.50
2023-02-22T09:56:14.267Z,253.12
2023-02-22T09:57:14.115Z,253.12
2023-02-22T09:58:14.123Z,253.12
2023-02-22T09:59:14.094Z,253.12
2023-02-22T10:00:14.101Z,258.75
2023-02-22T10:01:14.089Z,258.75
2023-02-22T10:02:14.071Z,258.75
2023-02-22T10:03:14.052Z,258.75
2023-02-22T10:04:14.057Z,253.12
2023-02-22T10:05:14.113Z,253.12
2023-02-22T10:06:14.027Z,253.12
2023-02-22T10:07:14.017Z,258.75
2023-02-22T10:08:14.005Z,264.38
2023-02-22T10:09:13.996Z,264.38
2023-02-22T10:10:13.986Z,270.00
2023-02-22T10:11:13.982Z,270.00
2023-02-22T10:12:13.980Z,275.62
2023-02-22T10:13:13.966Z,281.25
2023-02-22T10:14:13.965Z,281.25
2023-02-22T10:15:13.936Z,281.25
2023-02-22T10:16:14.060Z,286.88
2023-02-22T10:17:13.922Z,281.25
2023-02-22T10:18:13.893Z,281.25
2023-02-22T10:19:13.884Z,281.25
2023-02-22T10:20:13.884Z,281.25
2023-02-22T10:21:13.910Z,286.88
2023-02-22T10:22:13.860Z,292.50
2023-02-22T10:23:13.840Z,298.12
2023-02-22T10:24:13.830Z,309.38
2023-02-22T10:25:13.829Z,309.38
2023-02-22T10:26:13.844Z,309.38
2023-02-22T10:27:13.817Z,309.38
2023-02-22T10:28:13.812Z,315.00
2023-02-22T10:29:13.785Z,315.00
2023-02-22T10:30:24.066Z,320.62
2023-02-22T10:31:14.912Z,320.62
2023-02-22T10:32:13.947Z,320.62
2023-02-22T10:33:13.744Z,326.25
2023-02-22T10:34:13.744Z,326.25
2023-02-22T10:35:13.733Z,326.25
2023-02-22T10:36:13.718Z,326.25
2023-02-22T10:37:13.790Z,326.25
2023-02-22T10:38:13.694Z,320.62
2023-02-22T10:39:13.698Z,326.25
2023-02-22T10:40:13.673Z,326.25
2023-02-22T10:41:13.669Z,331.88
2023-02-22T10:42:13.657Z,337.50
2023-02-22T10:43:13.657Z,337.50
2023-02-22T10:44:13.628Z,337.50
2023-02-22T10:45:13.610Z,337.50
2023-02-22T10:46:13.644Z,337.50
2023-02-22T10:47:13.597Z,337.50
2023-02-22T10:48:13.588Z,337.50
2023-02-22T10:49:13.575Z,331.88
2023-02-22T10:50:13.572Z,326.25
2023-02-22T10:51:13.576Z,320.62
2023-02-22T10:52:13.531Z,320.62
2023-02-22T10:53:13.551Z,320.62
2023-02-22T10:54:13.519Z,320.62
2023-02-22T10:55:15.602Z,315.00
2023-02-22T10:56:13.506Z,315.00
2023-02-22T10:57:13.506Z,309.38
2023-02-22T10:58:13.494Z,309.38
2023-02-22T10:59:13.454Z,309.38
2023-02-22T11:00:13.457Z,303.75
2023-02-22T11:01:13.520Z,298.12
2023-02-22T11:02:13.429Z,292.50
2023-02-22T11:03:13.420Z,286.88
2023-02-22T11:04:13.450Z,286.88
2023-02-22T11:05:13.440Z,286.88
2023-02-22T11:06:13.396Z,286.88
2023-02-22T11:07:13.376Z,281.25
2023-02-22T11:08:13.362Z,281.25
2023-02-22T11:09:13.415Z,281.25
2023-02-22T11:10:13.338Z,281.25
2023-02-22T11:11:13.321Z,281.25
2023-02-22T11:12:13.309Z,281.25
2023-02-22T11:13:13.322Z,281.25
2023-02-22T11:14:13.291Z,281.25
2023-02-22T11:15:13.325Z,281.25
2023-02-22T11:16:13.346Z,286.88
2023-02-22T11:17:13.261Z,286.88
2023-02-22T11:18:13.253Z,292.50
2023-02-22T11:19:13.245Z,292.50
2023-02-22T11:20:13.244Z,298.12
2023-02-22T11:21:13.217Z,298.12
2023-02-22T11:22:13.207Z,303.75
2023-02-22T11:23:13.195Z,309.38
2023-02-22T11:24:13.183Z,309.38
2023-02-22T11:25:13.204Z,303.75
2023-02-22T11:26:13.209Z,303.75
2023-02-22T11:27:13.141Z,303.75
2023-02-22T11:28:13.131Z,309.38
2023-02-22T11:29:13.128Z,309.38
2023-02-22T11:30:13.160Z,303.75
2023-02-22T11:31:13.166Z,303.75
2023-02-22T11:32:13.185Z,303.75
2023-02-22T11:33:13.094Z,298.12
2023-02-22T11:34:13.075Z,298.12
2023-02-22T11:35:13.058Z,286.88
2023-02-22T11:36:13.049Z,286.88
2023-02-22T11:37:13.038Z,281.25
2023-02-22T11:38:13.027Z,281.25
2023-02-22T11:39:13.045Z,275.62
2023-02-22T11:40:13.018Z,270.00
2023-02-22T11:41:13.017Z,270.00
2023-02-22T11:42:12.994Z,275.62
2023-02-22T11:43:12.960Z,275.62
2023-02-22T11:44:12.953Z,281.25
2023-02-22T11:45:12.963Z,286.88
2023-02-22T11:46:12.997Z,286.88
2023-02-22T11:47:12.932Z,286.88
2023-02-22T11:48:12.920Z,281.25
2023-02-22T11:49:12.903Z,281.25
2023-02-22T11:50:12.890Z,292.50
2023-02-22T11:51:14.550Z,298.12
2023-02-22T11:52:12.880Z,298.12
2023-02-22T11:53:12.861Z,298.12
2023-02-22T11:54:12.873Z,292.50
2023-02-22T11:55:12.835Z,286.88
2023-02-22T11:56:12.838Z,286.88
2023-02-22T11:57:12.901Z,286.88
2023-02-22T11:58:13.800Z,286.88
2023-02-22T11:59:12.792Z,298.12
2023-02-22T12:00:12.803Z,303.75
2023-02-22T12:01:12.794Z,303.75
2023-02-22T12:02:12.764Z,309.38
2023-02-22T12:03:12.820Z,309.38
2023-02-22T12:04:12.844Z,315.00
2023-02-22T12:05:12.845Z,315.00
2023-02-22T12:06:12.710Z,320.62
2023-02-22T12:07:12.712Z,320.62
2023-02-22T12:08:19.822Z,315.00
2023-02-22T12:09:13.706Z,315.00
2023-02-22T12:10:12.701Z,315.00
2023-02-22T12:11:12.692Z,320.62
2023-02-22T12:12:12.644Z,326.25
2023-02-22T12:13:12.672Z,331.88
2023-02-22T12:14:12.641Z,331.88
2023-02-22T12:15:12.630Z,331.88
2023-02-22T12:16:12.640Z,331.88
2023-02-22T12:17:12.621Z,337.50
2023-02-22T12:18:12.582Z,343.12
2023-02-22T12:19:12.585Z,343.12
2023-02-22T12:20:12.715Z,343.12
2023-02-22T12:21:12.550Z,343.12
2023-02-22T12:22:12.550Z,337.50
2023-02-22T12:23:12.549Z,337.50
2023-02-22T12:24:12.533Z,343.12
2023-02-22T12:25:12.508Z,348.75
2023-02-22T12:26:12.506Z,343.12
2023-02-22T12:27:12.504Z,337.50
2023-02-22T12:28:23.652Z,331.88
2023-02-22T12:29:13.497Z,326.25
2023-02-22T12:30:12.512Z,315.00
2023-02-22T12:31:12.490Z,309.38
2023-02-22T12:32:12.537Z,303.75
2023-02-22T12:33:12.431Z,298.12
2023-02-22T12:34:12.645Z,286.88
2023-02-22T12:35:12.422Z,281.25
2023-02-22T12:36:12.428Z,281.25
2023-02-22T12:37:12.388Z,281.25
2023-02-22T12:38:12.374Z,286.88
2023-02-22T12:39:12.379Z,292.50
2023-02-22T12:40:12.404Z,292.50
2023-02-22T12:41:12.344Z,292.50
2023-02-22T12:42:12.344Z,286.88
2023-02-22T12:43:12.339Z,281.25
2023-02-22T12:44:12.315Z,270.00
2023-02-22T12:45:12.327Z,264.38
2023-02-22T12:46:12.344Z,258.75
2023-02-22T12:47:12.286Z,253.12
2023-02-22T12:48:12.267Z,253.12
2023-02-22T12:49:12.269Z,247.50
2023-02-22T12:50:14.784Z,247.50
2023-02-22T12:51:12.280Z,258.75
2023-02-22T12:52:21.346Z,264.38
2023-02-22T12:53:13.224Z,258.75
2023-02-22T12:54:12.204Z,258.75